createdAt,value
2018-07-17T00:00:05.501Z,0
2018-07-17T00:00:46.033Z,0
2018-07-17T00:01:26.655Z,0
2018-07-17T00:02:07.175Z,0
2018-07-17T00:02:47.681Z,0
2018-07-17T00:03:28.205Z,0
2018-07-17T00:04:08.720Z,0
2018-07-17T00:04:49.247Z,0
2018-07-17T00:05:29.769Z,0
2018-07-17T00:06:10.307Z,0
2018-07-17T00:06:50.837Z,0
2018-07-17T00:07:31.359Z,0
2018-07-17T00:08:11.882Z,0
2018-07-17T00:08:52.407Z,0
2018-07-17T00:09:32.993Z,0
2018-07-17T00:10:13.488Z,0
2018-07-17T00:10:54.062Z,0
2018-07-17T00:11:34.538Z,0
2018-07-17T00:12:15.052Z,0
2018-07-17T00:12:55.580Z,0
2018-07-17T00:13:36.087Z,0
2018-07-17T00:14:16.594Z,0
2018-07-17T00:14:57.114Z,0
2018-07-17T00:15:37.639Z,0
2018-07-17T00:16:18.147Z,0
2018-07-17T00:16:58.669Z,0
2018-07-17T00:17:39.189Z,0
2018-07-17T00:18:19.715Z,0
2018-07-17T00:19:00.240Z,0
2018-07-17T00:19:40.756Z,0
2018-07-17T00:20:21.267Z,0
2018-07-17T00:21:01.801Z,0
2018-07-17T00:21:42.311Z,0
2018-07-17T00:22:22.822Z,0
2018-07-17T00:23:03.334Z,0
2018-07-17T00:23:43.856Z,0
2018-07-17T00:24:24.372Z,0
2018-07-17T00:25:04.896Z,0
2018-07-17T00:25:45.492Z,0
2018-07-17T00:26:25.966Z,0
2018-07-17T00:27:06.481Z,0
2018-07-17T00:27:46.999Z,0
2018-07-17T00:28:27.534Z,0
2018-07-17T00:29:08.030Z,0
2018-07-17T00:29:48.545Z,0
2018-07-17T00:30:29.076Z,0
2018-07-17T00:31:09.601Z,0
2018-07-17T00:31:50.110Z,0
2018-07-17T00:32:30.637Z,0
2018-07-17T00:33:11.141Z,0
2018-07-17T00:33:51.669Z,0
2018-07-17T00:34:32.195Z,0
2018-07-17T00:35:12.704Z,0
2018-07-17T00:35:53.223Z,0
2018-07-17T00:36:33.749Z,0
2018-07-17T00:37:14.269Z,0
2018-07-17T00:37:54.784Z,0
2018-07-17T00:38:35.304Z,0
2018-07-17T00:39:15.828Z,0
2018-07-17T00:39:56.357Z,0
2018-07-17T00:40:36.874Z,0
2018-07-17T00:41:17.395Z,0
2018-07-17T00:41:57.919Z,0
2018-07-17T00:42:38.442Z,0
2018-07-17T00:43:18.980Z,0
2018-07-17T00:43:59.517Z,0
2018-07-17T00:44:40.053Z,0
2018-07-17T00:45:20.597Z,0
2018-07-17T00:46:01.120Z,0
2018-07-17T00:46:41.633Z,0
2018-07-17T00:47:22.170Z,0
2018-07-17T00:48:02.724Z,0
2018-07-17T00:48:43.237Z,0
2018-07-17T00:49:23.746Z,0
2018-07-17T00:50:04.268Z,0
2018-07-17T00:50:44.815Z,0
2018-07-17T00:51:25.345Z,0
2018-07-17T00:52:05.858Z,0
2018-07-17T00:52:46.373Z,0
2018-07-17T00:53:26.894Z,0
2018-07-17T00:54:07.431Z,0
2018-07-17T00:54:47.932Z,0
2018-07-17T00:55:28.452Z,0
2018-07-17T00:56:08.965Z,0
2018-07-17T00:56:49.499Z,0
2018-07-17T00:57:30.017Z,0
2018-07-17T00:58:10.552Z,0
2018-07-17T00:58:51.071Z,0
2018-07-17T00:59:31.568Z,0
2018-07-17T01:00:12.091Z,0
2018-07-17T01:00:52.611Z,0
2018-07-17T01:01:33.133Z,0
2018-07-17T01:02:13.664Z,0
2018-07-17T01:02:54.187Z,0
2018-07-17T01:03:34.731Z,0
2018-07-17T01:04:15.243Z,0
2018-07-17T01:04:55.765Z,0
2018-07-17T01:05:36.302Z,0
2018-07-17T01:06:16.819Z,0
2018-07-17T01:06:57.342Z,0
2018-07-17T01:07:37.860Z,0
2018-07-17T01:08:18.398Z,0
2018-07-17T01:08:58.907Z,0
2018-07-17T01:09:39.416Z,0
2018-07-17T01:10:19.923Z,0
2018-07-17T01:11:00.458Z,0
2018-07-17T01:11:40.970Z,0
2018-07-17T01:12:21.499Z,0
2018-07-17T01:13:02.008Z,0
2018-07-17T01:13:42.562Z,0
2018-07-17T01:14:23.076Z,0
2018-07-17T01:15:03.594Z,0
2018-07-17T01:15:44.118Z,0
2018-07-17T01:16:24.637Z,0
2018-07-17T01:17:05.182Z,0
2018-07-17T01:17:45.699Z,0
2018-07-17T01:18:26.231Z,0
2018-07-17T01:19:06.748Z,0
2018-07-17T01:19:47.268Z,0
2018-07-17T01:20:27.805Z,0
2018-07-17T01:21:08.320Z,0
2018-07-17T01:21:48.857Z,0
2018-07-17T01:22:29.363Z,0
2018-07-17T01:23:09.878Z,0
2018-07-17T01:23:50.400Z,0
2018-07-17T01:24:30.920Z,0
2018-07-17T01:25:11.446Z,0
2018-07-17T01:25:51.964Z,0
2018-07-17T01:26:32.484Z,0
2018-07-17T01:27:13.008Z,0
2018-07-17T01:27:53.544Z,0
2018-07-17T01:28:34.060Z,0
2018-07-17T01:29:14.577Z,0
2018-07-17T01:29:55.094Z,0
2018-07-17T01:30:35.630Z,0
2018-07-17T01:31:16.155Z,0
2018-07-17T01:31:56.685Z,0
2018-07-17T01:32:37.192Z,0
2018-07-17T01:33:17.710Z,0
2018-07-17T01:33:58.224Z,0
2018-07-17T01:34:38.734Z,0
2018-07-17T01:35:19.258Z,0
2018-07-17T01:35:59.797Z,0
2018-07-17T01:36:40.304Z,0
2018-07-17T01:37:20.826Z,0
2018-07-17T01:38:01.373Z,0
2018-07-17T01:38:41.901Z,0
2018-07-17T01:39:22.483Z,0
2018-07-17T01:40:02.936Z,0
2018-07-17T01:40:43.463Z,0
2018-07-17T01:41:23.999Z,0
2018-07-17T01:42:04.501Z,0
2018-07-17T01:42:45.025Z,0
2018-07-17T01:43:25.547Z,0
2018-07-17T01:44:06.070Z,0
2018-07-17T01:44:46.603Z,0
2018-07-17T01:45:27.135Z,0
2018-07-17T01:46:07.644Z,0
2018-07-17T01:46:48.154Z,0
2018-07-17T01:47:28.682Z,0
2018-07-17T01:48:09.210Z,0
2018-07-17T01:48:49.722Z,0
2018-07-17T01:49:30.261Z,0
2018-07-17T01:50:10.797Z,0
2018-07-17T01:50:51.327Z,0
2018-07-17T01:51:31.852Z,0
2018-07-17T01:52:12.364Z,0
2018-07-17T01:52:52.896Z,0
2018-07-17T01:53:33.418Z,0
2018-07-17T01:54:13.951Z,0
2018-07-17T01:54:54.469Z,0
2018-07-17T01:55:34.993Z,0
2018-07-17T01:56:15.514Z,0
2018-07-17T01:56:56.044Z,0
2018-07-17T01:57:36.575Z,0
2018-07-17T01:58:17.106Z,0
2018-07-17T01:58:57.634Z,0
2018-07-17T01:59:38.146Z,0
2018-07-17T02:00:18.666Z,0
2018-07-17T02:00:59.192Z,0
2018-07-17T02:01:39.711Z,0
2018-07-17T02:02:20.230Z,0
2018-07-17T02:03:00.745Z,0
2018-07-17T02:03:41.265Z,0
2018-07-17T02:04:21.785Z,0
2018-07-17T02:05:02.295Z,0
2018-07-17T02:05:42.825Z,0
2018-07-17T02:06:23.350Z,0
2018-07-17T02:07:03.872Z,0
2018-07-17T02:07:44.400Z,0
2018-07-17T02:08:24.937Z,0
2018-07-17T02:09:05.455Z,0
2018-07-17T02:09:45.982Z,0
2018-07-17T02:10:26.506Z,0
2018-07-17T02:11:07.026Z,0
2018-07-17T02:11:47.569Z,0
2018-07-17T02:12:28.099Z,0
2018-07-17T02:13:08.617Z,0
2018-07-17T02:13:49.150Z,0
2018-07-17T02:14:29.667Z,0
2018-07-17T02:15:10.189Z,0
2018-07-17T02:15:50.704Z,0
2018-07-17T02:16:31.224Z,0
2018-07-17T02:17:11.747Z,0
2018-07-17T02:17:52.268Z,0
2018-07-17T02:18:32.785Z,0
2018-07-17T02:19:13.302Z,0
2018-07-17T02:19:53.845Z,0
2018-07-17T02:20:34.365Z,0
2018-07-17T02:21:14.891Z,0
2018-07-17T02:21:55.410Z,0
2018-07-17T02:22:35.930Z,0
2018-07-17T02:23:16.448Z,0
2018-07-17T02:23:56.972Z,0
2018-07-17T02:24:37.501Z,0
2018-07-17T02:25:18.032Z,0
2018-07-17T02:25:58.548Z,0
2018-07-17T02:26:39.074Z,0
2018-07-17T02:27:19.600Z,0
2018-07-17T02:28:00.121Z,0
2018-07-17T02:28:40.635Z,0
2018-07-17T02:29:21.151Z,0
2018-07-17T02:30:01.670Z,0
2018-07-17T02:30:42.187Z,0
2018-07-17T02:31:22.708Z,0
2018-07-17T02:32:03.238Z,0
2018-07-17T02:32:43.752Z,0
2018-07-17T02:33:24.274Z,0
2018-07-17T02:34:04.804Z,0
2018-07-17T02:34:45.326Z,0
2018-07-17T02:35:25.853Z,0
2018-07-17T02:36:06.381Z,0
2018-07-17T02:36:46.903Z,0
2018-07-17T02:37:27.436Z,0
2018-07-17T02:38:07.948Z,0
2018-07-17T02:38:48.481Z,0
2018-07-17T02:39:28.999Z,0
2018-07-17T02:40:09.512Z,0
2018-07-17T02:40:50.040Z,0
2018-07-17T02:41:30.563Z,0
2018-07-17T02:42:11.145Z,0
2018-07-17T02:42:51.596Z,0
2018-07-17T02:43:32.127Z,0
2018-07-17T02:44:12.644Z,0
2018-07-17T02:44:53.177Z,0
2018-07-17T02:45:33.710Z,0
2018-07-17T02:46:14.231Z,0
2018-07-17T02:46:54.797Z,0
2018-07-17T02:47:35.316Z,0
2018-07-17T02:48:15.828Z,0
2018-07-17T02:48:56.341Z,0
2018-07-17T02:49:36.867Z,0
2018-07-17T02:50:17.402Z,0
2018-07-17T02:50:57.919Z,0
2018-07-17T02:51:38.429Z,0
2018-07-17T02:52:18.950Z,0
2018-07-17T02:52:59.484Z,0
2018-07-17T02:53:40.000Z,0
2018-07-17T02:54:20.605Z,0
2018-07-17T02:55:01.064Z,0
2018-07-17T02:55:41.597Z,0
2018-07-17T02:56:22.128Z,0
2018-07-17T02:57:02.638Z,0
2018-07-17T02:57:43.160Z,0
2018-07-17T02:58:23.675Z,0
2018-07-17T02:59:04.195Z,0
2018-07-17T02:59:44.720Z,0
2018-07-17T03:00:25.235Z,0
2018-07-17T03:01:05.751Z,0
2018-07-17T03:01:46.273Z,0
2018-07-17T03:02:26.788Z,0
2018-07-17T03:03:07.305Z,0
2018-07-17T03:03:47.832Z,0
2018-07-17T03:04:28.355Z,0
2018-07-17T03:05:08.880Z,0
2018-07-17T03:05:49.400Z,0
2018-07-17T03:06:29.926Z,0
2018-07-17T03:07:10.551Z,0
2018-07-17T03:07:50.972Z,4
2018-07-17T03:08:31.513Z,4
2018-07-17T03:09:12.020Z,4
2018-07-17T03:09:52.556Z,0
2018-07-17T03:10:33.078Z,0
2018-07-17T03:11:13.611Z,4
2018-07-17T03:11:54.142Z,4
2018-07-17T03:12:34.666Z,4
2018-07-17T03:13:15.191Z,0
2018-07-17T03:13:55.714Z,4
2018-07-17T03:14:36.236Z,4
2018-07-17T03:15:16.760Z,4
2018-07-17T03:15:57.273Z,4
2018-07-17T03:16:37.791Z,4
2018-07-17T03:17:18.319Z,4
2018-07-17T03:17:58.852Z,8
2018-07-17T03:18:39.401Z,8
2018-07-17T03:19:19.909Z,12
2018-07-17T03:20:00.450Z,8
2018-07-17T03:20:40.963Z,8
2018-07-17T03:21:21.485Z,12
2018-07-17T03:22:02.009Z,12
2018-07-17T03:22:42.522Z,16
2018-07-17T03:23:23.058Z,16
2018-07-17T03:24:03.578Z,16
2018-07-17T03:24:44.210Z,16
2018-07-17T03:25:24.622Z,16
2018-07-17T03:26:05.157Z,20
2018-07-17T03:26:45.683Z,20
2018-07-17T03:27:26.214Z,20
2018-07-17T03:28:06.720Z,24
2018-07-17T03:28:47.243Z,24
2018-07-17T03:29:27.761Z,28
2018-07-17T03:30:08.267Z,28
2018-07-17T03:30:48.784Z,32
2018-07-17T03:31:29.309Z,32
2018-07-17T03:32:09.830Z,32
2018-07-17T03:32:50.350Z,36
2018-07-17T03:33:30.872Z,40
2018-07-17T03:34:11.405Z,40
2018-07-17T03:34:51.919Z,44
2018-07-17T03:35:32.444Z,44
2018-07-17T03:36:12.964Z,48
2018-07-17T03:36:53.520Z,52
2018-07-17T03:37:34.030Z,56
2018-07-17T03:38:14.539Z,60
2018-07-17T03:38:55.051Z,64
2018-07-17T03:39:35.581Z,64
2018-07-17T03:40:16.108Z,64
2018-07-17T03:40:56.613Z,68
2018-07-17T03:41:37.146Z,72
2018-07-17T03:42:17.663Z,80
2018-07-17T03:42:58.180Z,80
2018-07-17T03:43:38.714Z,84
2018-07-17T03:44:19.254Z,92
2018-07-17T03:44:59.777Z,92
2018-07-17T03:45:40.287Z,100
2018-07-17T03:46:20.813Z,104
2018-07-17T03:47:01.328Z,112
2018-07-17T03:47:41.853Z,116
2018-07-17T03:48:22.381Z,124
2018-07-17T03:49:02.904Z,128
2018-07-17T03:49:43.425Z,136
2018-07-17T03:50:23.964Z,140
2018-07-17T03:51:04.486Z,148
2018-07-17T03:51:45.019Z,148
2018-07-17T03:52:25.546Z,160
2018-07-17T03:53:06.080Z,164
2018-07-17T03:53:46.591Z,172
2018-07-17T03:54:27.114Z,180
2018-07-17T03:55:07.640Z,188
2018-07-17T03:55:48.168Z,196
2018-07-17T03:56:28.688Z,200
2018-07-17T03:57:09.215Z,208
2018-07-17T03:57:49.741Z,220
2018-07-17T03:58:30.264Z,232
2018-07-17T03:59:10.786Z,252
2018-07-17T03:59:51.321Z,264
2018-07-17T04:00:31.845Z,276
2018-07-17T04:01:12.355Z,288
2018-07-17T04:01:52.884Z,304
2018-07-17T04:02:33.401Z,316
2018-07-17T04:03:13.922Z,320
2018-07-17T04:03:54.466Z,328
2018-07-17T04:04:35.003Z,340
2018-07-17T04:05:15.516Z,348
2018-07-17T04:05:56.049Z,360
2018-07-17T04:06:36.583Z,372
2018-07-17T04:07:17.100Z,388
2018-07-17T04:07:57.611Z,404
2018-07-17T04:08:38.158Z,424
2018-07-17T04:09:18.642Z,436
2018-07-17T04:09:59.164Z,456
2018-07-17T04:10:39.695Z,468
2018-07-17T04:11:20.207Z,484
2018-07-17T04:12:00.723Z,496
2018-07-17T04:12:41.261Z,512
2018-07-17T04:13:21.845Z,524
2018-07-17T04:14:02.302Z,544
2018-07-17T04:14:42.818Z,556
2018-07-17T04:15:23.346Z,572
2018-07-17T04:16:03.890Z,596
2018-07-17T04:16:44.424Z,612
2018-07-17T04:17:24.935Z,628
2018-07-17T04:18:05.470Z,652
2018-07-17T04:18:45.981Z,668
2018-07-17T04:19:26.501Z,684
2018-07-17T04:20:07.023Z,704
2018-07-17T04:20:47.547Z,720
2018-07-17T04:21:28.069Z,736
2018-07-17T04:22:08.594Z,744
2018-07-17T04:22:49.125Z,756
2018-07-17T04:23:29.646Z,768
2018-07-17T04:24:10.168Z,784
2018-07-17T04:24:50.698Z,800
2018-07-17T04:25:31.204Z,816
2018-07-17T04:26:11.939Z,824
2018-07-17T04:26:52.470Z,836
2018-07-17T04:27:32.985Z,852
2018-07-17T04:28:13.513Z,868
2018-07-17T04:28:54.043Z,884
2018-07-17T04:29:34.549Z,888
2018-07-17T04:30:15.080Z,904
2018-07-17T04:30:55.598Z,912
2018-07-17T04:31:36.159Z,924
2018-07-17T04:32:16.638Z,936
2018-07-17T04:32:57.178Z,944
2018-07-17T04:33:37.716Z,948
2018-07-17T04:34:18.242Z,968
2018-07-17T04:34:58.764Z,984
2018-07-17T04:35:39.283Z,1044
2018-07-17T04:36:19.818Z,1064
2018-07-17T04:37:00.350Z,1124
2018-07-17T04:37:40.859Z,1248
2018-07-17T04:38:21.385Z,1400
2018-07-17T04:39:01.891Z,1384
2018-07-17T04:39:42.427Z,1272
2018-07-17T04:40:22.947Z,1208
2018-07-17T04:41:03.479Z,1148
2018-07-17T04:41:44.006Z,1284
2018-07-17T04:42:24.537Z,1404
2018-07-17T04:43:05.048Z,1224
2018-07-17T04:43:45.589Z,1088
2018-07-17T04:44:26.110Z,1076
2018-07-17T04:45:06.637Z,1048
2018-07-17T04:45:47.154Z,1028
2018-07-17T04:46:27.686Z,1024
2018-07-17T04:47:08.224Z,1032
2018-07-17T04:47:48.751Z,1044
2018-07-17T04:48:29.267Z,1096
2018-07-17T04:49:09.792Z,1136
2018-07-17T04:49:50.311Z,1136
2018-07-17T04:50:30.842Z,1076
2018-07-17T04:51:11.370Z,1072
2018-07-17T04:51:51.889Z,1048
2018-07-17T04:52:32.423Z,1004
2018-07-17T04:53:12.964Z,1016
2018-07-17T04:53:53.564Z,1012
2018-07-17T04:54:34.165Z,1000
2018-07-17T04:55:14.644Z,996
2018-07-17T04:55:56.438Z,1032
2018-07-17T04:56:36.980Z,1116
2018-07-17T04:57:17.521Z,1164
2018-07-17T04:57:58.024Z,1588
2018-07-17T04:58:38.559Z,2140
2018-07-17T04:59:19.083Z,2072
2018-07-17T04:59:59.618Z,1824
2018-07-17T05:00:40.122Z,1148
2018-07-17T05:01:20.649Z,1056
2018-07-17T05:02:01.191Z,1140
2018-07-17T05:02:41.702Z,1184
2018-07-17T05:03:22.248Z,1224
2018-07-17T05:04:02.871Z,1356
2018-07-17T05:04:43.407Z,1380
2018-07-17T05:05:23.933Z,1220
2018-07-17T05:06:04.461Z,1184
2018-07-17T05:06:44.998Z,1172
2018-07-17T05:07:25.519Z,1292
2018-07-17T05:08:06.029Z,1364
2018-07-17T05:08:46.544Z,1436
2018-07-17T05:09:27.067Z,1352
2018-07-17T05:10:07.589Z,1096
2018-07-17T05:10:48.114Z,972
2018-07-17T05:11:28.625Z,952
2018-07-17T05:12:09.140Z,952
2018-07-17T05:12:49.660Z,1060
2018-07-17T05:13:30.175Z,1068
2018-07-17T05:14:10.691Z,1228
2018-07-17T05:14:51.215Z,1004
2018-07-17T05:15:31.746Z,1036
2018-07-17T05:16:12.268Z,1032
2018-07-17T05:16:52.781Z,1204
2018-07-17T05:17:33.322Z,1868
2018-07-17T05:18:13.890Z,2156
2018-07-17T05:18:54.423Z,1892
2018-07-17T05:19:34.943Z,1372
2018-07-17T05:20:15.508Z,1452
2018-07-17T05:20:56.024Z,1728
2018-07-17T05:21:36.530Z,2320
2018-07-17T05:22:17.043Z,1816
2018-07-17T05:22:57.677Z,1336
2018-07-17T05:23:38.079Z,1320
2018-07-17T05:24:18.612Z,1256
2018-07-17T05:24:59.147Z,1268
2018-07-17T05:25:39.671Z,1372
2018-07-17T05:26:20.186Z,1516
2018-07-17T05:27:00.714Z,1296
2018-07-17T05:27:41.244Z,1380
2018-07-17T05:28:21.764Z,1460
2018-07-17T05:29:02.299Z,1500
2018-07-17T05:29:42.826Z,1444
2018-07-17T05:30:23.357Z,1384
2018-07-17T05:31:03.883Z,1256
2018-07-17T05:31:44.421Z,1200
2018-07-17T05:32:24.930Z,1232
2018-07-17T05:33:05.457Z,1248
2018-07-17T05:33:45.972Z,1184
2018-07-17T05:34:26.517Z,1128
2018-07-17T05:35:07.094Z,1092
2018-07-17T05:35:47.559Z,1016
2018-07-17T05:36:28.079Z,960
2018-07-17T05:37:08.606Z,908
2018-07-17T05:37:49.140Z,892
2018-07-17T05:38:29.670Z,916
2018-07-17T05:39:10.192Z,928
2018-07-17T05:39:50.720Z,960
2018-07-17T05:40:31.242Z,980
2018-07-17T05:41:11.785Z,1056
2018-07-17T05:41:52.307Z,1060
2018-07-17T05:42:32.913Z,1056
2018-07-17T05:43:13.479Z,1160
2018-07-17T05:43:54.010Z,1160
2018-07-17T05:44:34.525Z,1180
2018-07-17T05:45:15.048Z,1192
2018-07-17T05:45:55.580Z,1196
2018-07-17T05:46:36.145Z,1256
2018-07-17T05:47:16.638Z,1248
2018-07-17T05:47:57.155Z,1252
2018-07-17T05:48:37.676Z,1268
2018-07-17T05:49:18.217Z,1264
2018-07-17T05:49:58.761Z,1280
2018-07-17T05:50:39.268Z,1240
2018-07-17T05:51:19.790Z,1276
2018-07-17T05:52:00.340Z,1264
2018-07-17T05:52:40.823Z,1284
2018-07-17T05:53:21.350Z,1248
2018-07-17T05:54:01.877Z,1296
2018-07-17T05:54:42.403Z,1280
2018-07-17T05:55:22.946Z,1284
2018-07-17T05:56:03.457Z,1300
2018-07-17T05:56:43.985Z,1324
2018-07-17T05:57:24.505Z,1316
2018-07-17T05:58:05.042Z,1596
2018-07-17T05:58:45.570Z,1472
2018-07-17T05:59:26.097Z,1588
2018-07-17T06:00:06.626Z,1876
2018-07-17T06:00:47.137Z,1876
2018-07-17T06:01:27.673Z,2228
2018-07-17T06:02:08.189Z,2240
2018-07-17T06:02:48.722Z,2600
2018-07-17T06:03:29.332Z,2556
2018-07-17T06:04:09.768Z,2696
2018-07-17T06:04:50.290Z,2648
2018-07-17T06:05:30.811Z,2660
2018-07-17T06:06:11.326Z,2640
2018-07-17T06:06:51.855Z,2576
2018-07-17T06:07:32.385Z,2636
2018-07-17T06:08:12.915Z,2656
2018-07-17T06:08:53.468Z,2748
2018-07-17T06:09:33.971Z,2680
2018-07-17T06:10:14.563Z,2740
2018-07-17T06:10:55.045Z,2788
2018-07-17T06:11:35.559Z,2792
2018-07-17T06:12:16.092Z,2776
2018-07-17T06:12:56.614Z,2836
2018-07-17T06:13:37.171Z,2780
2018-07-17T06:14:17.691Z,2788
2018-07-17T06:14:58.214Z,2824
2018-07-17T06:15:38.755Z,2868
2018-07-17T06:16:19.270Z,2800
2018-07-17T06:16:59.790Z,2788
2018-07-17T06:17:40.314Z,2812
2018-07-17T06:18:20.836Z,2772
2018-07-17T06:19:01.438Z,2796
2018-07-17T06:19:41.900Z,2780
2018-07-17T06:20:22.431Z,2816
2018-07-17T06:21:03.157Z,2796
2018-07-17T06:21:43.665Z,2788
2018-07-17T06:22:24.190Z,2824
2018-07-17T06:23:04.728Z,2812
2018-07-17T06:23:45.271Z,2760
2018-07-17T06:24:25.797Z,2800
2018-07-17T06:25:06.359Z,2720
2018-07-17T06:25:46.849Z,2764
2018-07-17T06:26:27.375Z,2728
2018-07-17T06:27:07.891Z,2708
2018-07-17T06:27:48.417Z,2712
2018-07-17T06:28:28.943Z,2696
2018-07-17T06:29:09.470Z,2724
2018-07-17T06:29:50.005Z,2644
2018-07-17T06:30:30.528Z,2616
2018-07-17T06:31:11.042Z,2640
2018-07-17T06:31:51.618Z,2620
2018-07-17T06:32:32.143Z,2704
2018-07-17T06:33:12.670Z,2624
2018-07-17T06:33:53.192Z,2660
2018-07-17T06:34:33.717Z,2548
2018-07-17T06:35:14.246Z,2608
2018-07-17T06:35:54.770Z,2528
2018-07-17T06:36:35.325Z,2620
2018-07-17T06:37:15.850Z,2544
2018-07-17T06:37:56.370Z,2620
2018-07-17T06:38:36.889Z,2664
2018-07-17T06:39:17.428Z,2652
2018-07-17T06:39:57.944Z,2676
2018-07-17T06:40:38.461Z,2672
2018-07-17T06:41:19.001Z,2700
2018-07-17T06:41:59.511Z,2724
2018-07-17T06:42:40.038Z,2684
2018-07-17T06:43:20.560Z,2652
2018-07-17T06:44:01.085Z,2644
2018-07-17T06:44:41.652Z,2660
2018-07-17T06:45:22.134Z,2612
2018-07-17T06:46:02.681Z,2604
2018-07-17T06:46:43.227Z,2572
2018-07-17T06:47:23.741Z,2612
2018-07-17T06:48:04.297Z,2580
2018-07-17T06:48:44.817Z,2604
2018-07-17T06:49:25.353Z,2584
2018-07-17T06:50:05.881Z,2612
2018-07-17T06:50:46.441Z,2656
2018-07-17T06:51:26.984Z,2624
2018-07-17T06:52:07.490Z,2696
2018-07-17T06:52:48.003Z,2692
2018-07-17T06:53:28.529Z,2708
2018-07-17T06:54:09.117Z,2644
2018-07-17T06:54:49.590Z,2628
2018-07-17T06:55:30.111Z,2640
2018-07-17T06:56:10.624Z,2728
2018-07-17T06:56:51.155Z,2732
2018-07-17T06:57:31.685Z,2732
2018-07-17T06:58:12.221Z,2808
2018-07-17T06:58:54.430Z,2776
2018-07-17T06:59:33.980Z,2752
2018-07-17T07:00:14.518Z,2700
2018-07-17T07:00:55.061Z,2728
2018-07-17T07:01:35.600Z,2688
2018-07-17T07:02:16.116Z,2748
2018-07-17T07:02:56.638Z,2704
2018-07-17T07:03:37.163Z,2736
2018-07-17T07:04:17.664Z,2720
2018-07-17T07:04:58.178Z,2736
2018-07-17T07:05:38.691Z,2740
2018-07-17T07:06:19.253Z,2684
2018-07-17T07:06:59.785Z,2760
2018-07-17T07:07:40.290Z,2708
2018-07-17T07:08:20.818Z,2672
2018-07-17T07:09:01.351Z,2708
2018-07-17T07:09:41.890Z,2684
2018-07-17T07:10:22.403Z,2656
2018-07-17T07:11:02.933Z,2680
2018-07-17T07:11:43.451Z,2680
2018-07-17T07:12:23.996Z,2620
2018-07-17T07:13:04.515Z,2616
2018-07-17T07:13:45.052Z,2596
2018-07-17T07:14:25.588Z,2724
2018-07-17T07:15:06.111Z,2660
2018-07-17T07:15:46.632Z,2640
2018-07-17T07:16:27.171Z,2628
2018-07-17T07:17:07.687Z,2684
2018-07-17T07:17:48.204Z,2592
2018-07-17T07:18:28.715Z,2632
2018-07-17T07:19:09.244Z,2632
2018-07-17T07:19:49.785Z,2620
2018-07-17T07:20:30.299Z,2616
2018-07-17T07:21:10.828Z,2684
2018-07-17T07:21:51.394Z,2604
2018-07-17T07:22:31.922Z,2608
2018-07-17T07:23:12.515Z,2592
2018-07-17T07:23:52.963Z,2600
2018-07-17T07:24:33.500Z,2584
2018-07-17T07:25:14.028Z,2580
2018-07-17T07:25:54.550Z,2556
2018-07-17T07:26:35.069Z,2596
2018-07-17T07:27:15.593Z,2656
2018-07-17T07:27:56.127Z,2604
2018-07-17T07:28:36.655Z,2596
2018-07-17T07:29:17.181Z,2552
2018-07-17T07:29:57.711Z,2548
2018-07-17T07:30:38.236Z,2604
2018-07-17T07:31:18.767Z,2536
2018-07-17T07:31:59.289Z,2584
2018-07-17T07:32:39.821Z,2544
2018-07-17T07:33:20.371Z,2552
2018-07-17T07:34:00.886Z,2556
2018-07-17T07:34:41.409Z,2472
2018-07-17T07:35:21.929Z,2524
2018-07-17T07:36:02.454Z,2488
2018-07-17T07:36:42.991Z,2504
2018-07-17T07:37:23.531Z,2496
2018-07-17T07:38:04.064Z,2460
2018-07-17T07:38:44.590Z,2528
2018-07-17T07:39:25.133Z,2464
2018-07-17T07:40:05.632Z,2452
2018-07-17T07:40:46.171Z,2464
2018-07-17T07:41:26.701Z,2452
2018-07-17T07:42:07.238Z,2452
2018-07-17T07:42:47.831Z,2320
2018-07-17T07:43:28.298Z,2436
2018-07-17T07:44:08.834Z,2464
2018-07-17T07:44:49.353Z,2440
2018-07-17T07:45:29.871Z,2404
2018-07-17T07:46:10.395Z,2404
2018-07-17T07:46:50.945Z,2404
2018-07-17T07:47:31.468Z,2412
2018-07-17T07:48:12.012Z,2352
2018-07-17T07:48:52.551Z,2452
2018-07-17T07:49:33.088Z,2376
2018-07-17T07:50:13.634Z,2404
2018-07-17T07:50:54.166Z,2412
2018-07-17T07:51:34.709Z,2428
2018-07-17T07:52:15.212Z,2384
2018-07-17T07:52:55.763Z,2372
2018-07-17T07:53:36.291Z,2440
2018-07-17T07:54:16.809Z,2380
2018-07-17T07:54:57.346Z,2336
2018-07-17T07:55:37.935Z,2348
2018-07-17T07:56:18.374Z,2316
2018-07-17T07:56:58.919Z,2360
2018-07-17T07:57:39.444Z,2372
2018-07-17T07:58:19.976Z,2356
2018-07-17T07:59:00.512Z,2320
2018-07-17T07:59:41.059Z,2312
2018-07-17T08:00:21.578Z,2296
2018-07-17T08:01:02.112Z,2264
2018-07-17T08:01:42.675Z,2252
2018-07-17T08:02:23.207Z,2264
2018-07-17T08:03:03.715Z,2148
2018-07-17T08:03:44.380Z,1984
2018-07-17T08:04:24.769Z,2152
2018-07-17T08:05:05.303Z,2204
2018-07-17T08:05:45.834Z,2200
2018-07-17T08:06:26.404Z,2172
2018-07-17T08:07:06.900Z,2132
2018-07-17T08:07:47.420Z,2148
2018-07-17T08:08:27.977Z,2132
2018-07-17T08:09:08.494Z,2020
2018-07-17T08:09:49.042Z,2148
2018-07-17T08:10:29.559Z,2068
2018-07-17T08:11:10.106Z,2056
2018-07-17T08:11:50.668Z,2072
2018-07-17T08:12:31.165Z,2076
2018-07-17T08:13:11.700Z,2020
2018-07-17T08:13:52.225Z,2012
2018-07-17T08:14:32.762Z,2000
2018-07-17T08:15:13.283Z,1988
2018-07-17T08:15:53.803Z,2028
2018-07-17T08:16:34.333Z,1996
2018-07-17T08:17:14.859Z,1960
2018-07-17T08:17:55.409Z,2004
2018-07-17T08:18:35.971Z,1952
2018-07-17T08:19:16.504Z,1900
2018-07-17T08:19:57.014Z,1908
2018-07-17T08:20:37.547Z,1940
2018-07-17T08:21:18.065Z,1888
2018-07-17T08:21:58.607Z,1880
2018-07-17T08:22:39.171Z,1820
2018-07-17T08:23:19.705Z,1840
2018-07-17T08:24:00.212Z,1896
2018-07-17T08:24:40.733Z,1840
2018-07-17T08:25:21.242Z,1816
2018-07-17T08:26:01.757Z,1828
2018-07-17T08:26:42.285Z,1800
2018-07-17T08:27:22.826Z,1768
2018-07-17T08:28:03.361Z,1708
2018-07-17T08:28:43.880Z,1656
2018-07-17T08:29:24.419Z,1624
2018-07-17T08:30:05.071Z,1552
2018-07-17T08:30:45.593Z,1504
2018-07-17T08:31:26.124Z,1488
2018-07-17T08:32:06.664Z,1464
2018-07-17T08:32:47.260Z,1432
2018-07-17T08:33:27.776Z,1428
2018-07-17T08:34:08.312Z,1416
2018-07-17T08:34:48.830Z,1420
2018-07-17T08:35:29.360Z,1400
2018-07-17T08:36:09.896Z,1424
2018-07-17T08:36:50.406Z,1420
2018-07-17T08:37:30.950Z,1408
2018-07-17T08:38:11.466Z,1424
2018-07-17T08:38:51.972Z,1380
2018-07-17T08:39:32.655Z,1412
2018-07-17T08:40:13.127Z,1380
2018-07-17T08:40:53.637Z,1396
2018-07-17T08:41:34.177Z,1380
2018-07-17T08:42:14.715Z,1380
2018-07-17T08:42:55.241Z,1400
2018-07-17T08:43:35.776Z,1324
2018-07-17T08:44:16.294Z,1380
2018-07-17T08:44:56.877Z,1388
2018-07-17T08:45:37.404Z,1364
2018-07-17T08:46:17.931Z,1360
2018-07-17T08:46:58.457Z,1304
2018-07-17T08:47:39.012Z,1336
2018-07-17T08:48:19.523Z,1348
2018-07-17T08:49:00.048Z,1360
2018-07-17T08:49:40.558Z,1348
2018-07-17T08:50:21.090Z,1324
2018-07-17T08:51:01.624Z,1316
2018-07-17T08:51:42.146Z,1376
2018-07-17T08:52:22.752Z,1368
2018-07-17T08:53:03.225Z,1348
2018-07-17T08:53:43.735Z,1352
2018-07-17T08:54:24.313Z,1368
2018-07-17T08:55:04.787Z,1312
2018-07-17T08:55:45.325Z,1360
2018-07-17T08:56:25.864Z,1332
2018-07-17T08:57:06.371Z,1352
2018-07-17T08:57:46.912Z,1312
2018-07-17T08:58:27.441Z,1332
2018-07-17T08:59:08.013Z,1312
2018-07-17T08:59:48.552Z,1300
2018-07-17T09:00:29.160Z,1308
2018-07-17T09:01:09.641Z,1284
2018-07-17T09:01:50.179Z,1296
2018-07-17T09:02:30.704Z,1268
2018-07-17T09:03:11.235Z,1324
2018-07-17T09:03:51.741Z,1316
2018-07-17T09:04:32.264Z,1340
2018-07-17T09:05:12.775Z,1324
2018-07-17T09:05:53.360Z,1300
2018-07-17T09:06:33.841Z,1356
2018-07-17T09:07:14.367Z,1348
2018-07-17T09:07:54.901Z,1328
2018-07-17T09:08:35.425Z,1348
2018-07-17T09:09:15.956Z,1320
2018-07-17T09:09:56.498Z,1328
2018-07-17T09:10:36.998Z,1336
2018-07-17T09:11:17.531Z,1324
2018-07-17T09:11:58.060Z,1332
2018-07-17T09:12:38.605Z,1312
2018-07-17T09:13:19.141Z,1304
2018-07-17T09:13:59.685Z,1316
2018-07-17T09:14:40.338Z,1348
2018-07-17T09:15:20.885Z,1304
2018-07-17T09:16:01.416Z,1304
2018-07-17T09:16:41.951Z,1324
2018-07-17T09:17:22.470Z,1300
2018-07-17T09:18:03.010Z,1292
2018-07-17T09:18:43.522Z,1296
2018-07-17T09:19:24.062Z,1288
2018-07-17T09:20:04.631Z,1276
2018-07-17T09:20:45.165Z,1324
2018-07-17T09:21:25.690Z,1300
2018-07-17T09:22:06.294Z,1260
2018-07-17T09:22:46.820Z,1268